sensor_id;sensor_type;location;lat;lon;timestamp;temperature;humidity
36652;DHT22;53334;51.976;20.144;2022-10-26T00:01:25;26.40;55.30
36652;DHT22;53334;51.976;20.144;2022-10-26T00:03:58;26.40;55.30
36652;DHT22;53334;51.976;20.144;2022-10-26T00:06:32;26.40;55.40
36652;DHT22;53334;51.976;20.144;2022-10-26T00:09:07;26.40;55.60
36652;DHT22;53334;51.976;20.144;2022-10-26T00:11:41;26.40;55.80
36652;DHT22;53334;51.976;20.144;2022-10-26T00:14:15;26.40;56.00
36652;DHT22;53334;51.976;20.144;2022-10-26T00:16:48;26.40;56.00
36652;DHT22;53334;51.976;20.144;2022-10-26T00:19:22;26.40;56.30
36652;DHT22;53334;51.976;20.144;2022-10-26T00:21:56;26.40;56.60
36652;DHT22;53334;51.976;20.144;2022-10-26T00:24:31;26.40;56.80
36652;DHT22;53334;51.976;20.144;2022-10-26T00:27:04;26.40;56.70
36652;DHT22;53334;51.976;20.144;2022-10-26T00:29:38;26.40;57.00
36652;DHT22;53334;51.976;20.144;2022-10-26T00:32:12;26.50;57.60
36652;DHT22;53334;51.976;20.144;2022-10-26T00:34:45;26.50;57.80
36652;DHT22;53334;51.976;20.144;2022-10-26T00:37:19;26.50;57.60
36652;DHT22;53334;51.976;20.144;2022-10-26T00:39:54;26.50;57.70
36652;DHT22;53334;51.976;20.144;2022-10-26T00:42:28;26.50;57.70
36652;DHT22;53334;51.976;20.144;2022-10-26T00:45:03;26.50;57.80
36652;DHT22;53334;51.976;20.144;2022-10-26T00:47:38;26.50;57.70
36652;DHT22;53334;51.976;20.144;2022-10-26T00:50:15;26.50;57.70
36652;DHT22;53334;51.976;20.144;2022-10-26T00:52:49;26.50;57.70
36652;DHT22;53334;51.976;20.144;2022-10-26T00:55:25;26.60;57.90
36652;DHT22;53334;51.976;20.144;2022-10-26T00:58:02;26.60;58.10
36652;DHT22;53334;51.976;20.144;2022-10-26T01:00:36;26.60;58.10
36652;DHT22;53334;51.976;20.144;2022-10-26T01:03:11;26.60;57.80
36652;DHT22;53334;51.976;20.144;2022-10-26T01:05:45;26.60;58.00
36652;DHT22;53334;51.976;20.144;2022-10-26T01:08:20;26.60;58.00
36652;DHT22;53334;51.976;20.144;2022-10-26T01:10:55;26.60;58.00
36652;DHT22;53334;51.976;20.144;2022-10-26T01:13:30;26.60;58.00
36652;DHT22;53334;51.976;20.144;2022-10-26T01:16:11;26.60;58.00
36652;DHT22;53334;51.976;20.144;2022-10-26T01:18:50;26.60;58.10
36652;DHT22;53334;51.976;20.144;2022-10-26T01:21:34;26.60;58.00
36652;DHT22;53334;51.976;20.144;2022-10-26T01:24:22;26.60;58.00
36652;DHT22;53334;51.976;20.144;2022-10-26T01:27:14;26.60;58.00
36652;DHT22;53334;51.976;20.144;2022-10-26T01:30:15;26.60;58.10
36652;DHT22;53334;51.976;20.144;2022-10-26T01:32:59;26.60;58.00
36652;DHT22;53334;51.976;20.144;2022-10-26T01:35:37;26.60;57.90
36652;DHT22;53334;51.976;20.144;2022-10-26T01:38:13;26.60;57.80
36652;DHT22;53334;51.976;20.144;2022-10-26T01:40:49;26.60;57.90
36652;DHT22;53334;51.976;20.144;2022-10-26T01:43:27;26.60;57.90
36652;DHT22;53334;51.976;20.144;2022-10-26T01:46:04;26.60;57.80
36652;DHT22;53334;51.976;20.144;2022-10-26T01:48:39;26.60;57.80
36652;DHT22;53334;51.976;20.144;2022-10-26T01:51:13;26.60;57.90
36652;DHT22;53334;51.976;20.144;2022-10-26T01:53:47;26.60;57.80
36652;DHT22;53334;51.976;20.144;2022-10-26T01:56:22;26.60;57.70
36652;DHT22;53334;51.976;20.144;2022-10-26T02:02:10;26.60;57.60
36652;DHT22;53334;51.976;20.144;2022-10-26T02:04:50;26.60;57.80
36652;DHT22;53334;51.976;20.144;2022-10-26T02:07:28;26.60;57.80
36652;DHT22;53334;51.976;20.144;2022-10-26T02:10:05;26.60;58.40
36652;DHT22;53334;51.976;20.144;2022-10-26T02:12:43;26.60;57.90
36652;DHT22;53334;51.976;20.144;2022-10-26T02:15:19;26.60;57.70
36652;DHT22;53334;51.976;20.144;2022-10-26T02:17:55;26.60;57.70
36652;DHT22;53334;51.976;20.144;2022-10-26T02:20:32;26.60;57.70
36652;DHT22;53334;51.976;20.144;2022-10-26T02:23:06;26.60;57.70
36652;DHT22;53334;51.976;20.144;2022-10-26T02:25:43;26.60;57.70
36652;DHT22;53334;51.976;20.144;2022-10-26T02:28:18;26.60;57.60
36652;DHT22;53334;51.976;20.144;2022-10-26T02:30:54;26.60;57.70
36652;DHT22;53334;51.976;20.144;2022-10-26T02:33:30;26.60;57.80
36652;DHT22;53334;51.976;20.144;2022-10-26T02:36:06;26.60;57.70
36652;DHT22;53334;51.976;20.144;2022-10-26T02:38:41;26.60;57.60
36652;DHT22;53334;51.976;20.144;2022-10-26T02:41:15;26.60;57.60
36652;DHT22;53334;51.976;20.144;2022-10-26T02:43:51;26.60;57.80
36652;DHT22;53334;51.976;20.144;2022-10-26T02:46:25;26.50;57.90
36652;DHT22;53334;51.976;20.144;2022-10-26T02:49:02;26.60;58.00
36652;DHT22;53334;51.976;20.144;2022-10-26T02:51:37;26.50;58.00
36652;DHT22;53334;51.976;20.144;2022-10-26T02:54:12;26.60;58.10
36652;DHT22;53334;51.976;20.144;2022-10-26T02:56:47;26.50;58.00
36652;DHT22;53334;51.976;20.144;2022-10-26T02:59:25;26.60;58.10
36652;DHT22;53334;51.976;20.144;2022-10-26T03:02:00;26.60;58.10
36652;DHT22;53334;51.976;20.144;2022-10-26T03:04:35;26.60;58.10
36652;DHT22;53334;51.976;20.144;2022-10-26T03:07:09;26.60;58.10
36652;DHT22;53334;51.976;20.144;2022-10-26T03:09:42;26.60;58.20
36652;DHT22;53334;51.976;20.144;2022-10-26T03:12:16;26.60;58.20
36652;DHT22;53334;51.976;20.144;2022-10-26T03:14:49;26.60;58.10
36652;DHT22;53334;51.976;20.144;2022-10-26T03:17:23;26.60;58.20
36652;DHT22;53334;51.976;20.144;2022-10-26T03:19:58;26.60;58.30
36652;DHT22;53334;51.976;20.144;2022-10-26T03:22:31;26.50;58.20
36652;DHT22;53334;51.976;20.144;2022-10-26T03:25:05;26.50;58.20
36652;DHT22;53334;51.976;20.144;2022-10-26T03:27:44;26.50;58.20
36652;DHT22;53334;51.976;20.144;2022-10-26T03:30:18;26.50;58.20
36652;DHT22;53334;51.976;20.144;2022-10-26T03:32:51;26.50;58.30
36652;DHT22;53334;51.976;20.144;2022-10-26T03:35:26;26.50;58.40
36652;DHT22;53334;51.976;20.144;2022-10-26T03:38:00;26.50;58.40
36652;DHT22;53334;51.976;20.144;2022-10-26T03:40:33;26.50;58.40
36652;DHT22;53334;51.976;20.144;2022-10-26T03:43:07;26.60;58.50
36652;DHT22;53334;51.976;20.144;2022-10-26T03:45:41;26.60;58.50
36652;DHT22;53334;51.976;20.144;2022-10-26T03:48:14;26.60;58.60
36652;DHT22;53334;51.976;20.144;2022-10-26T03:50:49;26.60;58.60
36652;DHT22;53334;51.976;20.144;2022-10-26T03:53:23;26.50;58.50
36652;DHT22;53334;51.976;20.144;2022-10-26T03:55:56;26.50;58.50
36652;DHT22;53334;51.976;20.144;2022-10-26T03:58:30;26.50;58.40
36652;DHT22;53334;51.976;20.144;2022-10-26T04:01:03;26.50;58.40
36652;DHT22;53334;51.976;20.144;2022-10-26T04:03:37;26.50;58.40
36652;DHT22;53334;51.976;20.144;2022-10-26T04:06:12;26.50;58.50
36652;DHT22;53334;51.976;20.144;2022-10-26T04:08:46;26.50;58.50
36652;DHT22;53334;51.976;20.144;2022-10-26T04:11:19;26.50;58.50
36652;DHT22;53334;51.976;20.144;2022-10-26T04:13:53;26.50;58.50
36652;DHT22;53334;51.976;20.144;2022-10-26T04:16:26;26.60;58.60
36652;DHT22;53334;51.976;20.144;2022-10-26T04:19:04;26.50;58.50
36652;DHT22;53334;51.976;20.144;2022-10-26T04:21:39;26.50;58.60
36652;DHT22;53334;51.976;20.144;2022-10-26T04:24:13;26.50;58.60
36652;DHT22;53334;51.976;20.144;2022-10-26T04:26:47;26.60;58.70
36652;DHT22;53334;51.976;20.144;2022-10-26T04:29:20;26.50;58.70
36652;DHT22;53334;51.976;20.144;2022-10-26T04:31:54;26.60;58.80
36652;DHT22;53334;51.976;20.144;2022-10-26T04:34:27;26.60;58.80
36652;DHT22;53334;51.976;20.144;2022-10-26T04:37:02;26.50;58.70
36652;DHT22;53334;51.976;20.144;2022-10-26T04:39:36;26.60;58.70
36652;DHT22;53334;51.976;20.144;2022-10-26T04:42:10;26.50;58.60
36652;DHT22;53334;51.976;20.144;2022-10-26T04:44:43;26.60;58.70
36652;DHT22;53334;51.976;20.144;2022-10-26T04:47:17;26.50;58.70
36652;DHT22;53334;51.976;20.144;2022-10-26T04:49:50;26.60;58.70
36652;DHT22;53334;51.976;20.144;2022-10-26T04:52:25;26.50;58.60
36652;DHT22;53334;51.976;20.144;2022-10-26T04:54:59;26.60;58.70
36652;DHT22;53334;51.976;20.144;2022-10-26T04:57:32;26.60;58.70
36652;DHT22;53334;51.976;20.144;2022-10-26T05:00:07;26.60;58.70
36652;DHT22;53334;51.976;20.144;2022-10-26T05:02:41;26.50;58.60
36652;DHT22;53334;51.976;20.144;2022-10-26T05:05:15;26.50;58.40
36652;DHT22;53334;51.976;20.144;2022-10-26T05:07:53;26.60;58.50
36652;DHT22;53334;51.976;20.144;2022-10-26T05:10:27;26.50;58.30
36652;DHT22;53334;51.976;20.144;2022-10-26T05:13:01;26.60;58.50
36652;DHT22;53334;51.976;20.144;2022-10-26T05:15:34;26.60;58.30
36652;DHT22;53334;51.976;20.144;2022-10-26T05:18:08;26.50;58.30
36652;DHT22;53334;51.976;20.144;2022-10-26T05:20:42;26.60;58.60
36652;DHT22;53334;51.976;20.144;2022-10-26T05:23:18;26.60;58.50
36652;DHT22;53334;51.976;20.144;2022-10-26T05:25:53;26.50;58.40
36652;DHT22;53334;51.976;20.144;2022-10-26T05:28:27;26.60;58.40
36652;DHT22;53334;51.976;20.144;2022-10-26T05:31:01;26.60;58.40
36652;DHT22;53334;51.976;20.144;2022-10-26T05:33:34;26.60;58.10
36652;DHT22;53334;51.976;20.144;2022-10-26T05:36:08;26.60;58.10
36652;DHT22;53334;51.976;20.144;2022-10-26T05:38:43;26.60;57.80
36652;DHT22;53334;51.976;20.144;2022-10-26T05:41:17;26.60;57.50
36652;DHT22;53334;51.976;20.144;2022-10-26T05:43:50;26.50;57.20
36652;DHT22;53334;51.976;20.144;2022-10-26T05:46:24;26.50;56.90
36652;DHT22;53334;51.976;20.144;2022-10-26T05:48:58;26.50;57.00
36652;DHT22;53334;51.976;20.144;2022-10-26T05:51:32;26.60;57.10
36652;DHT22;53334;51.976;20.144;2022-10-26T05:54:10;26.50;56.70
36652;DHT22;53334;51.976;20.144;2022-10-26T05:56:45;26.50;56.40
36652;DHT22;53334;51.976;20.144;2022-10-26T05:59:19;26.50;56.80
36652;DHT22;53334;51.976;20.144;2022-10-26T06:02:00;26.50;56.60
36652;DHT22;53334;51.976;20.144;2022-10-26T06:04:36;26.60;56.40
36652;DHT22;53334;51.976;20.144;2022-10-26T06:07:11;26.60;56.50
36652;DHT22;53334;51.976;20.144;2022-10-26T06:09:47;26.60;56.30
36652;DHT22;53334;51.976;20.144;2022-10-26T06:12:21;26.60;56.20
36652;DHT22;53334;51.976;20.144;2022-10-26T06:14:57;26.60;56.10
36652;DHT22;53334;51.976;20.144;2022-10-26T06:17:35;26.60;55.70
36652;DHT22;53334;51.976;20.144;2022-10-26T06:20:16;26.60;55.70
36652;DHT22;53334;51.976;20.144;2022-10-26T06:22:59;26.60;55.70
36652;DHT22;53334;51.976;20.144;2022-10-26T06:25:39;26.60;55.50
36652;DHT22;53334;51.976;20.144;2022-10-26T06:28:21;26.60;55.30
36652;DHT22;53334;51.976;20.144;2022-10-26T06:30:58;26.60;54.90
36652;DHT22;53334;51.976;20.144;2022-10-26T06:33:32;26.60;55.20
36652;DHT22;53334;51.976;20.144;2022-10-26T06:36:10;26.60;54.90
36652;DHT22;53334;51.976;20.144;2022-10-26T06:38:49;26.60;54.60
36652;DHT22;53334;51.976;20.144;2022-10-26T06:41:24;26.60;54.30
36652;DHT22;53334;51.976;20.144;2022-10-26T06:43:59;26.60;54.20
36652;DHT22;53334;51.976;20.144;2022-10-26T06:46:35;26.60;53.90
36652;DHT22;53334;51.976;20.144;2022-10-26T06:49:14;26.50;53.40
36652;DHT22;53334;51.976;20.144;2022-10-26T06:51:50;26.60;53.40
36652;DHT22;53334;51.976;20.144;2022-10-26T06:54:28;26.50;53.30
36652;DHT22;53334;51.976;20.144;2022-10-26T06:57:06;26.50;53.10
36652;DHT22;53334;51.976;20.144;2022-10-26T06:59:42;26.50;51.30
36652;DHT22;53334;51.976;20.144;2022-10-26T07:02:16;26.50;50.90
36652;DHT22;53334;51.976;20.144;2022-10-26T07:04:51;26.50;49.40
36652;DHT22;53334;51.976;20.144;2022-10-26T07:07:25;26.40;48.50
36652;DHT22;53334;51.976;20.144;2022-10-26T07:09:59;26.40;48.80
36652;DHT22;53334;51.976;20.144;2022-10-26T07:12:35;26.30;49.20
36652;DHT22;53334;51.976;20.144;2022-10-26T07:15:09;26.30;49.20
36652;DHT22;53334;51.976;20.144;2022-10-26T07:17:43;26.30;49.30
36652;DHT22;53334;51.976;20.144;2022-10-26T07:20:20;26.30;49.60
36652;DHT22;53334;51.976;20.144;2022-10-26T07:22:54;26.30;49.50
36652;DHT22;53334;51.976;20.144;2022-10-26T07:25:28;26.30;50.20
36652;DHT22;53334;51.976;20.144;2022-10-26T07:28:03;26.30;50.20
36652;DHT22;53334;51.976;20.144;2022-10-26T07:30:38;26.20;49.80
36652;DHT22;53334;51.976;20.144;2022-10-26T07:33:13;26.30;50.40
36652;DHT22;53334;51.976;20.144;2022-10-26T07:35:47;26.30;50.50
36652;DHT22;53334;51.976;20.144;2022-10-26T07:38:20;26.30;50.60
36652;DHT22;53334;51.976;20.144;2022-10-26T07:40:54;26.30;50.20
36652;DHT22;53334;51.976;20.144;2022-10-26T07:43:30;26.30;50.60
36652;DHT22;53334;51.976;20.144;2022-10-26T07:46:04;26.30;50.50
36652;DHT22;53334;51.976;20.144;2022-10-26T07:48:38;26.30;50.70
36652;DHT22;53334;51.976;20.144;2022-10-26T07:51:19;26.40;51.00
36652;DHT22;53334;51.976;20.144;2022-10-26T07:53:53;26.40;51.00
36652;DHT22;53334;51.976;20.144;2022-10-26T07:56:27;26.30;50.50
36652;DHT22;53334;51.976;20.144;2022-10-26T07:59:02;26.40;50.40
36652;DHT22;53334;51.976;20.144;2022-10-26T08:01:36;26.30;50.20
36652;DHT22;53334;51.976;20.144;2022-10-26T08:04:10;26.30;50.80
36652;DHT22;53334;51.976;20.144;2022-10-26T08:06:44;26.40;50.90
36652;DHT22;53334;51.976;20.144;2022-10-26T08:09:18;26.40;50.70
36652;DHT22;53334;51.976;20.144;2022-10-26T08:11:52;26.40;50.60
36652;DHT22;53334;51.976;20.144;2022-10-26T08:14:28;26.40;50.70
36652;DHT22;53334;51.976;20.144;2022-10-26T08:17:02;26.40;50.50
36652;DHT22;53334;51.976;20.144;2022-10-26T08:19:36;26.40;50.60
36652;DHT22;53334;51.976;20.144;2022-10-26T08:22:10;26.40;50.50
36652;DHT22;53334;51.976;20.144;2022-10-26T08:24:46;26.40;50.70
36652;DHT22;53334;51.976;20.144;2022-10-26T08:27:21;26.40;50.70
36652;DHT22;53334;51.976;20.144;2022-10-26T08:29:56;26.40;50.80
36652;DHT22;53334;51.976;20.144;2022-10-26T08:32:29;26.40;50.80
36652;DHT22;53334;51.976;20.144;2022-10-26T08:35:03;26.40;50.50
36652;DHT22;53334;51.976;20.144;2022-10-26T08:37:37;26.50;50.60
36652;DHT22;53334;51.976;20.144;2022-10-26T08:40:13;26.50;50.50
36652;DHT22;53334;51.976;20.144;2022-10-26T08:42:48;26.50;50.50
36652;DHT22;53334;51.976;20.144;2022-10-26T08:45:25;26.50;50.80
36652;DHT22;53334;51.976;20.144;2022-10-26T08:48:10;26.50;51.10
36652;DHT22;53334;51.976;20.144;2022-10-26T08:50:47;26.50;51.30
36652;DHT22;53334;51.976;20.144;2022-10-26T08:53:23;26.50;52.10
36652;DHT22;53334;51.976;20.144;2022-10-26T08:56:00;26.50;52.30
36652;DHT22;53334;51.976;20.144;2022-10-26T08:58:37;26.40;52.50
36652;DHT22;53334;51.976;20.144;2022-10-26T09:01:14;26.50;52.60
36652;DHT22;53334;51.976;20.144;2022-10-26T09:03:48;26.50;52.70
36652;DHT22;53334;51.976;20.144;2022-10-26T09:06:24;26.50;52.80
36652;DHT22;53334;51.976;20.144;2022-10-26T09:09:01;26.50;53.20
36652;DHT22;53334;51.976;20.144;2022-10-26T09:11:39;26.50;53.20
36652;DHT22;53334;51.976;20.144;2022-10-26T09:14:16;26.50;53.20
36652;DHT22;53334;51.976;20.144;2022-10-26T09:16:56;26.50;53.20
36652;DHT22;53334;51.976;20.144;2022-10-26T09:19:36;26.50;53.00
36652;DHT22;53334;51.976;20.144;2022-10-26T09:22:15;26.50;53.50
36652;DHT22;53334;51.976;20.144;2022-10-26T09:24:51;26.50;53.00
36652;DHT22;53334;51.976;20.144;2022-10-26T09:27:26;26.50;52.80
36652;DHT22;53334;51.976;20.144;2022-10-26T09:30:02;26.50;53.50
36652;DHT22;53334;51.976;20.144;2022-10-26T09:32:39;26.50;53.80
36652;DHT22;53334;51.976;20.144;2022-10-26T09:35:16;26.50;53.90
36652;DHT22;53334;51.976;20.144;2022-10-26T09:37:52;26.50;54.30
36652;DHT22;53334;51.976;20.144;2022-10-26T09:40:29;26.50;54.40
36652;DHT22;53334;51.976;20.144;2022-10-26T09:43:05;26.50;54.30
36652;DHT22;53334;51.976;20.144;2022-10-26T09:45:43;26.50;54.00
36652;DHT22;53334;51.976;20.144;2022-10-26T09:48:21;26.50;54.00
36652;DHT22;53334;51.976;20.144;2022-10-26T09:50:58;26.50;53.80
36652;DHT22;53334;51.976;20.144;2022-10-26T09:53:36;26.50;54.40
36652;DHT22;53334;51.976;20.144;2022-10-26T09:56:11;26.60;54.60
36652;DHT22;53334;51.976;20.144;2022-10-26T09:58:46;26.60;54.30
36652;DHT22;53334;51.976;20.144;2022-10-26T10:01:21;26.50;53.90
36652;DHT22;53334;51.976;20.144;2022-10-26T10:07:10;26.50;54.30
36652;DHT22;53334;51.976;20.144;2022-10-26T10:09:44;26.60;55.00
36652;DHT22;53334;51.976;20.144;2022-10-26T10:12:31;26.60;55.20
36652;DHT22;53334;51.976;20.144;2022-10-26T10:15:12;26.60;55.20
36652;DHT22;53334;51.976;20.144;2022-10-26T10:17:49;26.60;55.20
36652;DHT22;53334;51.976;20.144;2022-10-26T10:20:25;26.50;55.20
36652;DHT22;53334;51.976;20.144;2022-10-26T10:23:01;26.50;54.40
36652;DHT22;53334;51.976;20.144;2022-10-26T10:25:36;26.60;54.10
36652;DHT22;53334;51.976;20.144;2022-10-26T10:28:19;26.60;53.90
36652;DHT22;53334;51.976;20.144;2022-10-26T10:30:53;26.60;54.00
36652;DHT22;53334;51.976;20.144;2022-10-26T10:33:31;26.50;54.30
36652;DHT22;53334;51.976;20.144;2022-10-26T10:36:06;26.50;54.00
36652;DHT22;53334;51.976;20.144;2022-10-26T10:38:43;26.50;53.80
36652;DHT22;53334;51.976;20.144;2022-10-26T10:41:19;26.50;53.50
36652;DHT22;53334;51.976;20.144;2022-10-26T10:43:57;26.50;53.20
36652;DHT22;53334;51.976;20.144;2022-10-26T10:46:32;26.50;52.80
36652;DHT22;53334;51.976;20.144;2022-10-26T10:49:15;26.50;52.70
36652;DHT22;53334;51.976;20.144;2022-10-26T10:51:51;26.40;52.60
36652;DHT22;53334;51.976;20.144;2022-10-26T10:54:28;26.50;52.50
36652;DHT22;53334;51.976;20.144;2022-10-26T10:57:06;26.50;52.40
36652;DHT22;53334;51.976;20.144;2022-10-26T10:59:45;26.50;51.90
36652;DHT22;53334;51.976;20.144;2022-10-26T11:02:32;26.40;52.00
36652;DHT22;53334;51.976;20.144;2022-10-26T11:08:06;26.40;51.80
36652;DHT22;53334;51.976;20.144;2022-10-26T11:10:43;26.40;51.50
36652;DHT22;53334;51.976;20.144;2022-10-26T11:13:19;26.40;51.60
36652;DHT22;53334;51.976;20.144;2022-10-26T11:15:55;26.40;51.20
36652;DHT22;53334;51.976;20.144;2022-10-26T11:18:33;26.40;51.30
36652;DHT22;53334;51.976;20.144;2022-10-26T11:21:11;26.50;51.50
36652;DHT22;53334;51.976;20.144;2022-10-26T11:23:48;26.40;51.60
36652;DHT22;53334;51.976;20.144;2022-10-26T11:26:26;26.40;51.40
36652;DHT22;53334;51.976;20.144;2022-10-26T11:29:03;26.40;51.20
36652;DHT22;53334;51.976;20.144;2022-10-26T11:31:40;26.50;51.30
36652;DHT22;53334;51.976;20.144;2022-10-26T11:34:16;26.50;51.00
36652;DHT22;53334;51.976;20.144;2022-10-26T11:36:54;26.40;50.70
36652;DHT22;53334;51.976;20.144;2022-10-26T11:39:32;26.40;50.80
36652;DHT22;53334;51.976;20.144;2022-10-26T11:42:10;26.40;50.60
36652;DHT22;53334;51.976;20.144;2022-10-26T11:44:49;26.40;50.50
36652;DHT22;53334;51.976;20.144;2022-10-26T11:47:27;26.40;50.60
36652;DHT22;53334;51.976;20.144;2022-10-26T11:50:10;26.40;50.50
36652;DHT22;53334;51.976;20.144;2022-10-26T11:52:50;26.40;50.60
36652;DHT22;53334;51.976;20.144;2022-10-26T11:55:25;26.40;50.40
36652;DHT22;53334;51.976;20.144;2022-10-26T11:58:00;26.40;49.80
36652;DHT22;53334;51.976;20.144;2022-10-26T12:00:36;26.40;50.40
36652;DHT22;53334;51.976;20.144;2022-10-26T12:03:14;26.40;49.90
36652;DHT22;53334;51.976;20.144;2022-10-26T12:05:49;26.40;49.90
36652;DHT22;53334;51.976;20.144;2022-10-26T12:08:25;26.40;50.10
36652;DHT22;53334;51.976;20.144;2022-10-26T12:11:01;26.40;50.00
36652;DHT22;53334;51.976;20.144;2022-10-26T12:13:41;26.40;50.20
36652;DHT22;53334;51.976;20.144;2022-10-26T12:16:20;26.40;49.60
36652;DHT22;53334;51.976;20.144;2022-10-26T12:18:56;26.40;49.80
36652;DHT22;53334;51.976;20.144;2022-10-26T12:21:32;26.40;49.70
36652;DHT22;53334;51.976;20.144;2022-10-26T12:26:55;26.30;49.50
36652;DHT22;53334;51.976;20.144;2022-10-26T12:29:32;26.40;49.50
36652;DHT22;53334;51.976;20.144;2022-10-26T12:35:01;26.40;49.00
36652;DHT22;53334;51.976;20.144;2022-10-26T12:37:36;26.40;49.40
36652;DHT22;53334;51.976;20.144;2022-10-26T12:48:40;26.30;49.40
36652;DHT22;53334;51.976;20.144;2022-10-26T12:51:24;26.30;48.90
36652;DHT22;53334;51.976;20.144;2022-10-26T12:54:15;26.30;49.10
36652;DHT22;53334;51.976;20.144;2022-10-26T12:56:54;26.30;49.50
36652;DHT22;53334;51.976;20.144;2022-10-26T12:59:28;26.30;49.00
36652;DHT22;53334;51.976;20.144;2022-10-26T13:02:29;26.30;49.30
36652;DHT22;53334;51.976;20.144;2022-10-26T13:08:01;26.20;48.80
36652;DHT22;53334;51.976;20.144;2022-10-26T13:10:36;26.30;48.90
36652;DHT22;53334;51.976;20.144;2022-10-26T13:13:17;26.20;48.90
36652;DHT22;53334;51.976;20.144;2022-10-26T13:15:54;26.20;48.70
36652;DHT22;53334;51.976;20.144;2022-10-26T13:18:28;26.20;49.00
36652;DHT22;53334;51.976;20.144;2022-10-26T13:21:04;26.20;49.00
36652;DHT22;53334;51.976;20.144;2022-10-26T13:23:40;26.20;48.70
36652;DHT22;53334;51.976;20.144;2022-10-26T13:26:16;26.20;49.30
36652;DHT22;53334;51.976;20.144;2022-10-26T13:28:50;26.20;48.90
36652;DHT22;53334;51.976;20.144;2022-10-26T13:34:18;26.20;49.40
36652;DHT22;53334;51.976;20.144;2022-10-26T13:36:54;26.20;49.20
36652;DHT22;53334;51.976;20.144;2022-10-26T13:39:34;26.20;49.20
36652;DHT22;53334;51.976;20.144;2022-10-26T13:42:10;26.20;49.50
36652;DHT22;53334;51.976;20.144;2022-10-26T13:44:47;26.20;49.50
36652;DHT22;53334;51.976;20.144;2022-10-26T13:47:23;26.20;49.70
36652;DHT22;53334;51.976;20.144;2022-10-26T13:50:00;26.20;49.80
36652;DHT22;53334;51.976;20.144;2022-10-26T13:52:37;26.20;49.80
36652;DHT22;53334;51.976;20.144;2022-10-26T13:55:15;26.20;50.00
36652;DHT22;53334;51.976;20.144;2022-10-26T13:57:59;26.20;50.00
36652;DHT22;53334;51.976;20.144;2022-10-26T14:00:35;26.20;50.00
36652;DHT22;53334;51.976;20.144;2022-10-26T14:03:12;26.20;50.00
36652;DHT22;53334;51.976;20.144;2022-10-26T14:05:46;26.20;50.10
36652;DHT22;53334;51.976;20.144;2022-10-26T14:08:22;26.20;49.70
36652;DHT22;53334;51.976;20.144;2022-10-26T14:10:57;26.20;50.00
36652;DHT22;53334;51.976;20.144;2022-10-26T14:13:32;26.20;50.10
36652;DHT22;53334;51.976;20.144;2022-10-26T14:16:12;26.20;50.10
36652;DHT22;53334;51.976;20.144;2022-10-26T14:18:49;26.20;49.60
36652;DHT22;53334;51.976;20.144;2022-10-26T14:21:23;26.20;49.70
36652;DHT22;53334;51.976;20.144;2022-10-26T14:23:57;26.20;49.50
36652;DHT22;53334;51.976;20.144;2022-10-26T14:26:38;26.20;49.60
36652;DHT22;53334;51.976;20.144;2022-10-26T14:29:13;26.20;49.60
36652;DHT22;53334;51.976;20.144;2022-10-26T14:31:48;26.20;49.40
36652;DHT22;53334;51.976;20.144;2022-10-26T14:34:22;26.20;49.60
36652;DHT22;53334;51.976;20.144;2022-10-26T14:36:56;26.20;49.00
36652;DHT22;53334;51.976;20.144;2022-10-26T14:39:32;26.20;49.40
36652;DHT22;53334;51.976;20.144;2022-10-26T14:42:09;26.20;49.10
36652;DHT22;53334;51.976;20.144;2022-10-26T14:44:46;26.20;49.20
36652;DHT22;53334;51.976;20.144;2022-10-26T14:47:21;26.20;49.30
36652;DHT22;53334;51.976;20.144;2022-10-26T14:49:56;26.20;49.40
36652;DHT22;53334;51.976;20.144;2022-10-26T14:52:35;26.20;49.30
36652;DHT22;53334;51.976;20.144;2022-10-26T14:55:11;26.10;49.40
36652;DHT22;53334;51.976;20.144;2022-10-26T14:57:47;26.20;49.50
36652;DHT22;53334;51.976;20.144;2022-10-26T15:00:22;26.20;49.60
36652;DHT22;53334;51.976;20.144;2022-10-26T15:02:56;26.20;49.60
36652;DHT22;53334;51.976;20.144;2022-10-26T15:05:32;26.20;49.60
36652;DHT22;53334;51.976;20.144;2022-10-26T15:11:15;26.20;49.60
36652;DHT22;53334;51.976;20.144;2022-10-26T15:13:50;26.20;49.70
36652;DHT22;53334;51.976;20.144;2022-10-26T15:16:25;26.20;49.70
36652;DHT22;53334;51.976;20.144;2022-10-26T15:19:05;26.20;49.70
36652;DHT22;53334;51.976;20.144;2022-10-26T15:21:43;26.20;49.70
36652;DHT22;53334;51.976;20.144;2022-10-26T15:24:23;26.20;49.60
36652;DHT22;53334;51.976;20.144;2022-10-26T15:26:58;26.20;49.70
36652;DHT22;53334;51.976;20.144;2022-10-26T15:29:34;26.20;49.60
36652;DHT22;53334;51.976;20.144;2022-10-26T15:32:17;26.20;49.50
36652;DHT22;53334;51.976;20.144;2022-10-26T15:37:44;26.30;49.40
36652;DHT22;53334;51.976;20.144;2022-10-26T15:40:18;26.20;49.40
36652;DHT22;53334;51.976;20.144;2022-10-26T15:42:53;26.30;49.40
36652;DHT22;53334;51.976;20.144;2022-10-26T15:45:29;26.30;49.40
36652;DHT22;53334;51.976;20.144;2022-10-26T15:48:17;26.30;49.50
36652;DHT22;53334;51.976;20.144;2022-10-26T15:50:51;26.30;49.20
36652;DHT22;53334;51.976;20.144;2022-10-26T15:53:25;26.30;49.20
36652;DHT22;53334;51.976;20.144;2022-10-26T15:55:59;26.30;49.10
36652;DHT22;53334;51.976;20.144;2022-10-26T15:58:33;26.30;49.00
36652;DHT22;53334;51.976;20.144;2022-10-26T16:01:08;26.40;49.30
36652;DHT22;53334;51.976;20.144;2022-10-26T16:03:42;26.40;49.10
36652;DHT22;53334;51.976;20.144;2022-10-26T16:06:16;26.30;49.10
36652;DHT22;53334;51.976;20.144;2022-10-26T16:08:51;26.30;49.10
36652;DHT22;53334;51.976;20.144;2022-10-26T16:11:24;26.40;48.90
36652;DHT22;53334;51.976;20.144;2022-10-26T16:13:58;26.40;49.00
36652;DHT22;53334;51.976;20.144;2022-10-26T16:16:36;26.40;49.00
36652;DHT22;53334;51.976;20.144;2022-10-26T16:19:10;26.40;48.90
36652;DHT22;53334;51.976;20.144;2022-10-26T16:22:03;26.40;48.90
36652;DHT22;53334;51.976;20.144;2022-10-26T16:24:37;26.40;49.00
36652;DHT22;53334;51.976;20.144;2022-10-26T16:27:11;26.40;49.10
36652;DHT22;53334;51.976;20.144;2022-10-26T16:29:44;26.40;49.10
36652;DHT22;53334;51.976;20.144;2022-10-26T16:32:19;26.40;49.10
36652;DHT22;53334;51.976;20.144;2022-10-26T16:34:53;26.40;49.40
36652;DHT22;53334;51.976;20.144;2022-10-26T16:37:27;26.40;49.40
36652;DHT22;53334;51.976;20.144;2022-10-26T16:40:01;26.40;49.60
36652;DHT22;53334;51.976;20.144;2022-10-26T16:42:34;26.50;49.70
36652;DHT22;53334;51.976;20.144;2022-10-26T16:45:08;26.40;49.70